createdAt,value
2018-04-14T00:01:28.612Z,12.60
2018-04-14T00:03:56.084Z,12.60
2018-04-14T00:06:23.575Z,12.60
2018-04-14T00:08:51.211Z,12.60
2018-04-14T00:11:18.806Z,12.60
2018-04-14T00:13:46.257Z,12.60
2018-04-14T00:16:13.894Z,12.60
2018-04-14T00:18:41.380Z,12.70
2018-04-14T00:21:09.681Z,12.70
2018-04-14T00:23:37.173Z,12.60
2018-04-14T00:26:04.641Z,12.60
2018-04-14T00:28:32.208Z,12.50
2018-04-14T00:30:59.687Z,12.30
2018-04-14T00:33:28.027Z,12.00
2018-04-14T00:35:55.619Z,12.00
2018-04-14T00:38:23.201Z,11.90
2018-04-14T00:40:51.432Z,11.80
2018-04-14T00:43:18.912Z,11.80
2018-04-14T00:45:46.370Z,11.90
2018-04-14T00:48:14.640Z,12.00
2018-04-14T00:50:42.118Z,12.00
2018-04-14T00:53:22.088Z,12.20
2018-04-14T00:55:49.568Z,12.20
2018-04-14T00:58:17.070Z,12.30
2018-04-14T01:00:44.624Z,12.50
2018-04-14T01:03:12.297Z,12.60
2018-04-14T01:05:40.591Z,12.60
2018-04-14T01:08:08.076Z,12.60
2018-04-14T01:10:35.571Z,12.70
2018-04-14T01:13:03.817Z,12.80
2018-04-14T01:15:31.301Z,12.80
2018-04-14T01:17:58.763Z,12.70
2018-04-14T01:20:26.356Z,12.60
2018-04-14T01:22:53.887Z,12.60
2018-04-14T01:25:21.368Z,12.60
2018-04-14T01:27:49.618Z,12.30
2018-04-14T01:30:17.189Z,12.40
2018-04-14T01:32:45.416Z,12.50
2018-04-14T01:35:12.919Z,12.50
2018-04-14T01:37:41.341Z,12.40
2018-04-14T01:40:08.998Z,12.30
2018-04-14T01:42:36.462Z,12.30
2018-04-14T01:45:04.031Z,12.30
2018-04-14T01:47:31.545Z,12.40
2018-04-14T01:49:58.987Z,12.50
2018-04-14T01:52:27.245Z,12.50
2018-04-14T01:54:56.295Z,12.50
2018-04-14T01:57:23.768Z,12.50
2018-04-14T01:59:51.233Z,12.30
2018-04-14T02:02:18.714Z,12.10
2018-04-14T02:04:46.182Z,12.30
2018-04-14T02:07:13.656Z,12.40
2018-04-14T02:09:41.900Z,12.40
2018-04-14T02:12:09.548Z,12.40
2018-04-14T02:14:37.034Z,12.40
2018-04-14T02:17:04.516Z,12.40
2018-04-14T02:19:31.999Z,12.40
2018-04-14T02:21:59.995Z,12.40
2018-04-14T02:24:27.531Z,12.50
2018-04-14T02:26:55.084Z,12.50
2018-04-14T02:29:22.563Z,12.50
2018-04-14T02:31:50.047Z,12.40
2018-04-14T02:34:18.277Z,12.40
2018-04-14T02:36:45.779Z,12.40
2018-04-14T02:39:13.269Z,12.30
2018-04-14T02:41:41.697Z,12.40
2018-04-14T02:44:09.262Z,12.50
2018-04-14T02:46:36.746Z,12.30
2018-04-14T02:49:05.003Z,11.90
2018-04-14T02:51:33.976Z,11.90
2018-04-14T02:54:01.564Z,11.90
2018-04-14T02:56:29.221Z,12.10
2018-04-14T02:58:56.713Z,12.20
2018-04-14T03:01:24.184Z,12.20
2018-04-14T03:03:51.663Z,12.20
2018-04-14T03:06:19.140Z,12.20
2018-04-14T03:08:48.136Z,12.20
2018-04-14T03:11:16.372Z,12.20
2018-04-14T03:13:43.879Z,12.20
2018-04-14T03:16:12.851Z,12.10
2018-04-14T03:18:40.448Z,12.10
2018-04-14T03:21:08.686Z,12.10
2018-04-14T03:23:36.252Z,12.10
2018-04-14T03:26:03.855Z,12.10
2018-04-14T03:28:31.322Z,12.00
2018-04-14T03:30:58.862Z,12.00
2018-04-14T03:33:27.100Z,12.00
2018-04-14T03:35:54.610Z,12.00
2018-04-14T03:38:22.084Z,11.90
2018-04-14T03:40:49.571Z,11.80
2018-04-14T03:43:18.554Z,11.80
2018-04-14T03:45:46.045Z,11.80
2018-04-14T03:48:14.355Z,12.00
2018-04-14T03:50:41.872Z,11.90
2018-04-14T03:53:09.346Z,12.00
2018-04-14T03:55:37.591Z,12.00
2018-04-14T03:58:05.104Z,12.00
2018-04-14T04:00:32.575Z,12.00
2018-04-14T04:03:00.069Z,12.00
2018-04-14T04:05:29.328Z,12.10
2018-04-14T04:07:56.795Z,12.10
2018-04-14T04:10:24.259Z,12.10
2018-04-14T04:12:51.809Z,12.10
2018-04-14T04:15:19.368Z,12.10
2018-04-14T04:17:46.838Z,12.00
2018-04-14T04:20:20.472Z,12.10
2018-04-14T04:23:12.411Z,12.10
2018-04-14T04:25:42.511Z,12.10
2018-04-14T04:28:11.629Z,12.10
2018-04-14T04:30:39.068Z,12.10
2018-04-14T04:33:06.548Z,12.00
2018-04-14T04:35:35.377Z,11.90
2018-04-14T04:38:02.844Z,11.80
2018-04-14T04:40:30.314Z,11.90
2018-04-14T04:42:59.551Z,11.90
2018-04-14T04:45:27.796Z,11.80
2018-04-14T04:47:56.047Z,11.80
2018-04-14T04:50:23.529Z,11.80
2018-04-14T04:52:51.966Z,11.70
2018-04-14T04:55:19.426Z,11.70
2018-04-14T04:57:47.096Z,11.70
2018-04-14T05:00:15.360Z,11.70
2018-04-14T05:02:42.840Z,11.80
2018-04-14T05:05:10.316Z,11.70
2018-04-14T05:07:40.300Z,11.80
2018-04-14T05:10:07.812Z,11.80
2018-04-14T05:12:36.063Z,11.70
2018-04-14T05:15:05.159Z,11.70
2018-04-14T05:17:34.140Z,11.70
2018-04-14T05:20:01.695Z,11.70
2018-04-14T05:22:29.233Z,11.70
2018-04-14T05:24:56.723Z,11.80
2018-04-14T05:27:24.209Z,11.80
2018-04-14T05:29:52.460Z,11.80
2018-04-14T05:32:19.927Z,11.90
2018-04-14T05:34:47.405Z,11.90
2018-04-14T05:37:14.889Z,11.90
2018-04-14T05:39:42.487Z,11.90
2018-04-14T05:42:10.572Z,11.80
2018-04-14T05:44:38.104Z,11.80
2018-04-14T05:47:05.589Z,11.70
2018-04-14T05:49:33.825Z,11.70
2018-04-14T05:52:01.319Z,11.70
2018-04-14T05:54:29.651Z,11.90
2018-04-14T05:56:57.128Z,11.80
2018-04-14T05:59:24.671Z,11.90
2018-04-14T06:01:52.201Z,11.90
2018-04-14T06:04:19.779Z,11.90
2018-04-14T06:06:47.329Z,11.80
2018-04-14T06:09:14.832Z,11.80
2018-04-14T06:11:42.300Z,11.80
2018-04-14T06:14:09.779Z,11.90
2018-04-14T06:16:38.031Z,12.00
2018-04-14T06:19:05.499Z,12.00
2018-04-14T06:21:33.867Z,12.10
2018-04-14T06:24:01.360Z,12.10
2018-04-14T06:26:28.846Z,12.20
2018-04-14T06:28:56.331Z,12.30
2018-04-14T06:31:23.849Z,12.30
2018-04-14T06:33:51.364Z,12.40
2018-04-14T06:36:18.824Z,12.50
2018-04-14T06:38:47.077Z,12.60
2018-04-14T06:41:14.552Z,12.60
2018-04-14T06:43:42.806Z,12.70
2018-04-14T06:46:10.279Z,12.70
2018-04-14T06:48:37.760Z,12.80
2018-04-14T06:51:05.220Z,12.90
2018-04-14T06:53:32.709Z,13.00
2018-04-14T06:56:00.171Z,12.90
2018-04-14T06:58:27.720Z,12.90
2018-04-14T07:00:55.294Z,12.90
2018-04-14T07:03:23.683Z,13.00
2018-04-14T07:05:51.377Z,13.10
2018-04-14T07:08:19.633Z,13.20
2018-04-14T07:13:21.696Z,13.30
2018-04-14T07:15:49.188Z,13.50
2018-04-14T07:18:16.658Z,13.50
2018-04-14T07:20:44.931Z,13.90
2018-04-14T07:23:12.388Z,13.80
2018-04-14T07:25:40.627Z,14.00
2018-04-14T07:28:08.103Z,13.90
2018-04-14T07:30:35.588Z,14.00
2018-04-14T07:33:03.079Z,14.10
2018-04-14T07:35:30.563Z,14.10
2018-04-14T07:37:59.544Z,14.10
2018-04-14T07:40:27.204Z,14.10
2018-04-14T07:42:54.667Z,14.00
2018-04-14T07:45:22.157Z,14.20
2018-04-14T07:47:50.379Z,14.10
2018-04-14T07:50:17.867Z,14.10
2018-04-14T07:52:47.174Z,14.40
2018-04-14T07:55:14.644Z,14.40
2018-04-14T07:57:42.906Z,14.70
2018-04-14T08:00:11.229Z,14.80
2018-04-14T08:02:39.215Z,14.80
2018-04-14T08:05:06.693Z,14.90
2018-04-14T08:07:34.665Z,15.20
2018-04-14T08:10:02.920Z,15.40
2018-04-14T08:12:30.424Z,15.30
2018-04-14T08:14:58.669Z,15.30
2018-04-14T08:17:26.166Z,15.20
2018-04-14T08:19:54.429Z,15.10
2018-04-14T08:22:21.932Z,15.10
2018-04-14T08:24:49.399Z,15.20
2018-04-14T08:27:16.900Z,15.10
2018-04-14T08:29:45.322Z,15.10
2018-04-14T08:32:12.784Z,15.10
2018-04-14T08:34:40.256Z,15.10
2018-04-14T08:37:07.855Z,15.20
2018-04-14T08:39:36.110Z,15.40
2018-04-14T08:42:03.573Z,15.40
2018-04-14T08:44:31.068Z,15.50
2018-04-14T08:46:58.547Z,15.60
2018-04-14T08:49:26.046Z,15.70
2018-04-14T08:51:53.516Z,15.60
2018-04-14T08:54:21.776Z,15.40
2018-04-14T08:56:49.853Z,15.40
2018-04-14T08:59:17.328Z,15.40
2018-04-14T09:01:45.583Z,15.70
2018-04-14T09:04:13.083Z,15.60
2018-04-14T09:06:41.293Z,15.80
2018-04-14T09:09:08.856Z,15.80
2018-04-14T09:11:36.400Z,15.80
2018-04-14T09:14:03.895Z,15.70
2018-04-14T09:16:31.372Z,15.80
2018-04-14T09:18:59.641Z,16.10
2018-04-14T09:21:27.894Z,16.10
2018-04-14T09:23:55.376Z,16.00
2018-04-14T09:26:23.742Z,16.20
2018-04-14T09:28:51.179Z,16.20
2018-04-14T09:31:18.727Z,16.40
2018-04-14T09:33:46.209Z,16.30
2018-04-14T09:36:13.695Z,16.20
2018-04-14T09:38:41.945Z,16.10
2018-04-14T09:41:10.217Z,16.20
2018-04-14T09:43:37.870Z,16.20
2018-04-14T09:46:05.371Z,16.60
2018-04-14T09:48:32.931Z,17.00
2018-04-14T09:51:00.584Z,17.20
2018-04-14T09:53:28.820Z,17.70
2018-04-14T09:55:57.871Z,17.80
2018-04-14T09:58:25.419Z,17.80
2018-04-14T10:00:58.708Z,17.60
2018-04-14T10:03:26.332Z,17.50
2018-04-14T10:05:53.834Z,17.50
2018-04-14T10:08:21.367Z,17.50
2018-04-14T10:10:50.852Z,16.60
2018-04-14T10:13:18.356Z,16.50
2018-04-14T10:15:46.108Z,16.30
2018-04-14T10:18:14.405Z,16.00
2018-04-14T10:20:41.990Z,16.00
2018-04-14T10:23:09.477Z,16.00
2018-04-14T10:25:37.195Z,16.00
2018-04-14T10:28:04.829Z,15.90
2018-04-14T10:30:32.431Z,16.00
2018-04-14T10:33:00.090Z,16.00
2018-04-14T10:35:27.583Z,16.10
2018-04-14T10:37:55.213Z,16.20
2018-04-14T10:40:22.664Z,16.50
2018-04-14T10:42:50.172Z,16.80
2018-04-14T10:45:18.447Z,17.50
2018-04-14T10:47:45.939Z,17.40
2018-04-14T10:50:13.453Z,17.40
2018-04-14T10:52:41.708Z,17.70
2018-04-14T10:55:09.211Z,17.60
2018-04-14T10:57:36.720Z,17.90
2018-04-14T11:00:04.207Z,17.90
2018-04-14T11:02:32.450Z,17.70
2018-04-14T11:04:59.946Z,17.70
2018-04-14T11:07:28.213Z,17.70
2018-04-14T11:09:55.717Z,17.70
2018-04-14T11:12:23.237Z,18.00
2018-04-14T11:14:51.511Z,18.30
2018-04-14T11:17:19.878Z,18.40
2018-04-14T11:19:48.152Z,18.60
2018-04-14T11:22:16.445Z,18.50
2018-04-14T11:24:44.704Z,18.30
2018-04-14T11:27:12.226Z,18.30
2018-04-14T11:29:39.711Z,18.50
2018-04-14T11:32:07.209Z,18.60
2018-04-14T11:34:34.700Z,18.70
2018-04-14T11:37:02.194Z,18.80
2018-04-14T11:39:29.750Z,19.00
2018-04-14T11:41:57.335Z,19.20
2018-04-14T11:44:25.539Z,19.10
2018-04-14T11:46:53.040Z,19.00
2018-04-14T11:49:21.284Z,19.60
2018-04-14T11:51:48.896Z,19.60
2018-04-14T11:54:17.876Z,19.70
2018-04-14T11:56:45.365Z,19.70
2018-04-14T11:59:12.878Z,19.90
2018-04-14T12:01:41.136Z,20.60
2018-04-14T12:04:08.626Z,20.50
2018-04-14T12:06:36.093Z,20.20
2018-04-14T12:09:04.369Z,20.10
2018-04-14T12:11:31.878Z,20.10
2018-04-14T12:13:59.850Z,20.50
2018-04-14T12:16:27.362Z,21.40
2018-04-14T12:18:54.857Z,21.70
2018-04-14T12:21:22.332Z,21.90
2018-04-14T12:23:49.806Z,22.00
2018-04-14T12:26:17.291Z,22.40
2018-04-14T12:28:44.789Z,22.40
2018-04-14T12:31:12.269Z,21.90
2018-04-14T12:33:39.764Z,21.80
2018-04-14T12:36:08.040Z,22.20
2018-04-14T12:38:36.387Z,22.40
2018-04-14T12:41:03.927Z,22.40
2018-04-14T12:43:31.395Z,22.30
2018-04-14T12:45:58.894Z,22.30
2018-04-14T12:48:26.573Z,22.30
2018-04-14T12:50:55.222Z,22.10
2018-04-14T12:53:23.312Z,21.90
2018-04-14T12:55:50.832Z,21.80
2018-04-14T12:58:18.328Z,21.70
2018-04-14T13:00:45.829Z,21.00
2018-04-14T13:03:14.339Z,20.10
2018-04-14T13:05:41.913Z,20.20
2018-04-14T13:08:09.373Z,20.20
2018-04-14T13:10:37.899Z,20.20
2018-04-14T13:13:05.384Z,20.20
2018-04-14T13:15:33.671Z,21.10
2018-04-14T13:18:01.160Z,21.10
2018-04-14T13:20:28.645Z,21.40
2018-04-14T13:22:56.120Z,21.60
2018-04-14T13:25:23.604Z,21.70
2018-04-14T13:27:51.103Z,21.30
2018-04-14T13:30:18.587Z,21.10
2018-04-14T13:32:46.094Z,20.90
2018-04-14T13:35:14.333Z,21.40
2018-04-14T13:37:41.827Z,21.30
2018-04-14T13:40:09.335Z,21.60
2018-04-14T13:42:36.827Z,21.70
2018-04-14T13:45:05.119Z,21.80
2018-04-14T13:47:33.396Z,21.50
2018-04-14T13:50:00.943Z,21.50
2018-04-14T13:52:29.205Z,21.30
2018-04-14T13:54:56.711Z,21.30
2018-04-14T13:57:24.952Z,21.60
2018-04-14T13:59:53.925Z,21.90
2018-04-14T14:02:21.396Z,21.90
2018-04-14T14:04:49.737Z,22.40
2018-04-14T14:07:17.208Z,22.40
2018-04-14T14:09:44.810Z,22.30
2018-04-14T14:12:13.036Z,22.00
2018-04-14T14:14:40.532Z,22.00
2018-04-14T14:17:08.796Z,22.00
2018-04-14T14:19:37.051Z,22.00
2018-04-14T14:22:04.521Z,22.00
2018-04-14T14:24:32.184Z,21.90
2018-04-14T14:26:59.684Z,21.30
2018-04-14T14:29:27.222Z,21.00
2018-04-14T14:31:54.705Z,21.30
2018-04-14T14:34:22.315Z,21.40
2018-04-14T14:36:49.804Z,21.40
2018-04-14T14:39:18.077Z,21.20
2018-04-14T14:41:46.303Z,21.00
2018-04-14T14:44:13.836Z,21.00
2018-04-14T14:46:41.317Z,21.10
2018-04-14T14:49:08.793Z,21.00
2018-04-14T14:51:36.307Z,20.60
2018-04-14T14:54:03.794Z,20.30
2018-04-14T14:56:31.265Z,20.00
2018-04-14T14:58:59.743Z,19.80
2018-04-14T15:01:27.230Z,19.80
2018-04-14T15:03:55.996Z,19.60
2018-04-14T15:06:23.483Z,19.60
2018-04-14T15:08:51.732Z,19.60
2018-04-14T15:11:19.988Z,19.60
2018-04-14T15:13:47.534Z,19.60
2018-04-14T15:16:15.019Z,19.70
2018-04-14T15:18:42.621Z,19.60
2018-04-14T15:21:10.109Z,19.60
2018-04-14T15:23:37.608Z,19.70
2018-04-14T15:26:05.882Z,19.80
2018-04-14T15:28:33.357Z,19.80
2018-04-14T15:31:00.946Z,19.90
2018-04-14T15:33:28.443Z,20.00
2018-04-14T15:35:55.944Z,19.90
2018-04-14T15:38:23.511Z,19.90
2018-04-14T15:40:50.972Z,19.90
2018-04-14T15:43:18.461Z,19.80
2018-04-14T15:45:45.975Z,19.80
2018-04-14T15:48:14.258Z,19.80
2018-04-14T15:50:41.723Z,19.80
2018-04-14T15:53:09.222Z,19.60
2018-04-14T15:55:36.712Z,19.60
2018-04-14T15:58:04.240Z,19.40
2018-04-14T16:00:31.687Z,19.40
2018-04-14T16:02:59.178Z,19.30
2018-04-14T16:05:27.411Z,19.40
2018-04-14T16:07:56.634Z,19.30
2018-04-14T16:10:24.876Z,19.30
2018-04-14T16:12:52.377Z,19.20
2018-04-14T16:15:20.619Z,19.20
2018-04-14T16:17:48.125Z,19.20
2018-04-14T16:20:15.616Z,19.20
2018-04-14T16:22:43.090Z,19.00
2018-04-14T16:25:10.636Z,19.00
2018-04-14T16:27:38.103Z,19.00
2018-04-14T16:30:05.600Z,19.00
2018-04-14T16:32:33.843Z,18.80
2018-04-14T16:35:01.333Z,18.80
2018-04-14T16:37:29.581Z,18.80
2018-04-14T16:39:57.064Z,18.70
2018-04-14T16:42:25.404Z,18.80
2018-04-14T16:44:52.893Z,18.80
2018-04-14T16:47:21.130Z,18.70
2018-04-14T16:49:48.624Z,18.70
2018-04-14T16:52:16.905Z,18.60
2018-04-14T16:54:45.329Z,18.50
2018-04-14T16:57:12.832Z,18.50
2018-04-14T16:59:41.121Z,18.40
2018-04-14T17:02:09.381Z,18.40
2018-04-14T17:04:36.866Z,18.40
2018-04-14T17:07:04.409Z,18.40
2018-04-14T17:09:33.136Z,18.40
2018-04-14T17:12:00.637Z,18.40
2018-04-14T17:14:28.105Z,18.40
2018-04-14T17:16:55.789Z,18.30
2018-04-14T17:19:23.407Z,18.30
2018-04-14T17:21:50.885Z,18.20
2018-04-14T17:24:19.120Z,18.20
2018-04-14T17:26:46.702Z,18.20
2018-04-14T17:29:14.197Z,18.20
2018-04-14T17:31:41.675Z,18.10
2018-04-14T17:34:09.184Z,18.10
2018-04-14T17:36:37.423Z,17.90
2018-04-14T17:39:05.730Z,17.90
2018-04-14T17:41:33.207Z,18.00
2018-04-14T17:44:01.462Z,17.90
2018-04-14T17:46:29.023Z,17.80
2018-04-14T17:48:56.503Z,17.90
2018-04-14T17:51:24.759Z,17.80
2018-04-14T17:53:52.241Z,17.80
2018-04-14T17:56:20.521Z,17.80
2018-04-14T17:58:47.976Z,17.70
2018-04-14T18:01:15.457Z,17.80
2018-04-14T18:03:42.945Z,17.80
2018-04-14T18:06:10.420Z,17.80
2018-04-14T18:08:37.896Z,17.80
2018-04-14T18:11:06.139Z,17.60
2018-04-14T18:13:33.615Z,17.60
2018-04-14T18:16:01.855Z,17.60
2018-04-14T18:18:29.336Z,17.50
2018-04-14T18:20:56.802Z,17.50
2018-04-14T18:23:24.359Z,17.50
2018-04-14T18:25:51.895Z,17.50
2018-04-14T18:28:19.405Z,17.50
2018-04-14T18:30:47.108Z,17.40
2018-04-14T18:33:14.779Z,17.40
2018-04-14T18:35:42.267Z,17.50
2018-04-14T18:38:10.508Z,17.50
2018-04-14T18:40:38.126Z,17.40
2018-04-14T18:43:06.352Z,17.50
2018-04-14T18:45:33.842Z,17.40
2018-04-14T18:48:02.096Z,17.40
2018-04-14T18:50:30.866Z,17.40
2018-04-14T18:52:58.391Z,17.40
2018-04-14T18:55:26.048Z,17.40
2018-04-14T18:57:53.542Z,17.40
2018-04-14T19:00:21.231Z,17.40
2018-04-14T19:02:48.719Z,17.30
2018-04-14T19:05:16.201Z,17.30
2018-04-14T19:07:43.687Z,17.20
2018-04-14T19:10:11.355Z,17.20
2018-04-14T19:12:38.823Z,17.20
2018-04-14T19:15:07.080Z,17.20
2018-04-14T19:17:34.559Z,17.10
2018-04-14T19:20:02.871Z,17.00
2018-04-14T19:22:30.510Z,17.00
2018-04-14T19:24:58.742Z,17.00
2018-04-14T19:27:26.212Z,16.90
2018-04-14T19:29:54.475Z,17.00
2018-04-14T19:32:22.004Z,16.90
2018-04-14T19:34:49.435Z,17.00
2018-04-14T19:37:17.691Z,16.90
2018-04-14T19:39:45.319Z,16.90
2018-04-14T19:42:13.504Z,16.90
2018-04-14T19:44:40.996Z,16.80
2018-04-14T19:47:09.246Z,16.80
2018-04-14T19:49:36.737Z,16.80
2018-04-14T19:52:04.976Z,16.80
2018-04-14T19:54:32.510Z,16.80
2018-04-14T19:56:59.965Z,16.70
2018-04-14T19:59:27.532Z,16.70
2018-04-14T20:01:55.008Z,16.70
2018-04-14T20:04:22.510Z,16.70
2018-04-14T20:06:49.992Z,16.80
2018-04-14T20:09:17.660Z,16.70
2018-04-14T20:11:45.143Z,16.70
2018-04-14T20:14:12.646Z,16.70
2018-04-14T20:16:40.875Z,16.60
2018-04-14T20:19:08.355Z,16.60
2018-04-14T20:21:36.607Z,16.40
2018-04-14T20:24:04.090Z,16.40
2018-04-14T20:26:32.336Z,16.40
2018-04-14T20:28:59.898Z,16.30
2018-04-14T20:31:27.381Z,16.30
2018-04-14T20:33:55.608Z,16.30
2018-04-14T20:36:23.097Z,16.20
2018-04-14T20:38:50.584Z,16.30
2018-04-14T20:41:18.077Z,16.30
2018-04-14T20:43:45.544Z,16.30
2018-04-14T20:46:13.064Z,16.30
2018-04-14T20:48:40.548Z,16.30
2018-04-14T20:51:08.032Z,16.40
2018-04-14T20:53:35.570Z,16.40
2018-04-14T20:56:03.050Z,16.50
2018-04-14T20:58:30.544Z,16.50
2018-04-14T21:00:58.771Z,16.30
2018-04-14T21:03:26.267Z,16.30
2018-04-14T21:05:54.511Z,16.30
2018-04-14T21:08:22.016Z,16.30
2018-04-14T21:10:49.496Z,16.40
2018-04-14T21:13:17.583Z,16.40
2018-04-14T21:15:45.043Z,16.40
2018-04-14T21:18:12.537Z,16.40
2018-04-14T21:20:40.780Z,16.30
2018-04-14T21:23:08.371Z,16.30
2018-04-14T21:25:36.616Z,16.20
2018-04-14T21:28:04.108Z,16.20
2018-04-14T21:30:31.577Z,16.10
2018-04-14T21:32:59.815Z,16.10
2018-04-14T21:35:28.803Z,16.10
2018-04-14T21:37:56.301Z,16.10
2018-04-14T21:40:24.529Z,16.20
2018-04-14T21:42:52.015Z,16.10
2018-04-14T21:45:19.499Z,16.20
2018-04-14T21:47:47.047Z,16.20
2018-04-14T21:50:16.027Z,16.10
2018-04-14T21:52:43.522Z,16.10
2018-04-14T21:55:11.553Z,16.10
2018-04-14T21:57:39.791Z,16.10
2018-04-14T22:00:07.423Z,16.10
2018-04-14T22:02:34.895Z,16.10
2018-04-14T22:05:02.404Z,16.10
2018-04-14T22:07:30.647Z,16.10
2018-04-14T22:09:58.155Z,16.10
2018-04-14T22:12:26.393Z,16.00
2018-04-14T22:14:55.447Z,15.90
2018-04-14T22:17:22.920Z,15.90
2018-04-14T22:19:50.397Z,15.90
2018-04-14T22:22:17.868Z,15.80
2018-04-14T22:24:45.355Z,15.80
2018-04-14T22:27:12.836Z,15.80
2018-04-14T22:29:40.313Z,15.80
2018-04-14T22:32:07.795Z,15.80
2018-04-14T22:34:36.780Z,15.90
2018-04-14T22:37:05.031Z,15.90
2018-04-14T22:39:32.507Z,15.80
2018-04-14T22:42:00.013Z,15.80
2018-04-14T22:44:27.606Z,15.90
2018-04-14T22:46:55.109Z,15.90
2018-04-14T22:49:23.353Z,15.80
2018-04-14T22:51:50.831Z,15.80
2018-04-14T22:54:18.308Z,15.50
2018-04-14T22:56:46.570Z,15.40
2018-04-14T22:59:14.131Z,15.40
2018-04-14T23:01:42.376Z,15.30
2018-04-14T23:04:09.859Z,15.30
2018-04-14T23:06:37.325Z,15.30
2018-04-14T23:09:06.392Z,15.20
2018-04-14T23:11:33.855Z,15.20
2018-04-14T23:14:02.911Z,15.20
2018-04-14T23:16:30.382Z,15.20
2018-04-14T23:18:57.989Z,15.10
2018-04-14T23:21:26.302Z,15.10
2018-04-14T23:23:53.869Z,15.00
2018-04-14T23:26:21.336Z,15.00
2018-04-14T23:28:48.824Z,15.00
2018-04-14T23:31:16.958Z,14.90
2018-04-14T23:33:44.468Z,14.90
2018-04-14T23:36:12.696Z,14.90
2018-04-14T23:38:40.193Z,14.90
2018-04-14T23:41:08.431Z,14.80
2018-04-14T23:43:35.911Z,14.80
2018-04-14T23:46:04.914Z,14.70
2018-04-14T23:48:33.328Z,14.80
2018-04-14T23:51:00.827Z,14.80
2018-04-14T23:53:28.665Z,14.80
2018-04-14T23:55:56.171Z,14.90
2018-04-14T23:58:23.638Z,14.90
